This is the latest recevied weather packets stored in our database for station/object KP4DJT. If no packets are shown the sender has not sent any weather packets the latest 10 day(s).
| Time | Temp. | Humidity | Pressure | Rain* | Wind** | Luminosity | Snow |
|---|---|---|---|---|---|---|---|
| 1777495340 | 18.33° C | 50% | 1016.2 hPa | 0 mm | - | 725 W/m² | - |
| 1777494138 | 17.78° C | 50% | 1016.7 hPa | 0 mm | - | 643 W/m² | - |
| 1777492341 | 17.78° C | 50% | 1016.7 hPa | 0 mm | - | 592 W/m² | - |
| 1777491138 | 18.33° C | 51% | 1016.8 hPa | 0 mm | - | 986 W/m² | - |
| 1777486339 | 16.67° C | 53% | 1017.8 hPa | 0 mm | - | 1022 W/m² | - |
| 1777483940 | 15.56° C | 56% | 1018.8 hPa | 0 mm | - | 558 W/m² | - |
| 1777476138 | 12.78° C | 67% | 1019.1 hPa | 0 mm | - | 401 W/m² | - |
| 1777473759 | 11.67° C | 70% | 1019.2 hPa | 0 mm | - | 512 W/m² | - |
| 1777471939 | 10.56° C | 74% | 1019.7 hPa | 0 mm | - | 327 W/m² | - |
| 1777465344 | 8.89° C | 87% | 1018.5 hPa | 0 mm | - | 40 W/m² | - |
| 1777458159 | 10° C | 89% | 1018.7 hPa | 0 mm | - | 0 W/m² | - |
| 1777457559 | 10° C | 89% | 1018.6 hPa | 0 mm | - | 0 W/m² | - |
| 1777453949 | 10.56° C | 90% | 1018 hPa | 0 mm | - | 0 W/m² | - |
| 1777446750 | 11.67° C | 85% | 1018.4 hPa | 0 mm | - | 0 W/m² | - |
| 1777437140 | 13.89° C | 79% | 1016.3 hPa | 0 mm | - | 0 W/m² | - |
| 1777435363 | 14.44° C | 78% | 1016.2 hPa | 0 mm | - | 0 W/m² | - |
| 1777434158 | 15° C | 78% | 1016.1 hPa | 0 mm | - | 0 W/m² | - |
| 1777429339 | 16.67° C | 73% | 1015 hPa | 0 mm | - | 0 W/m² | - |
| 1777428739 | 16.67° C | 72% | 1014.8 hPa | 0 mm | - | 0 W/m² | - |
| 1777419738 | 18.89° C | 62% | 1013.2 hPa | 0 mm | - | 204 W/m² | - |
| 1777417339 | 18.33° C | 65% | 1012.7 hPa | 0 mm | - | 353 W/m² | - |
| 1777415539 | 17.78° C | 66% | 1012.4 hPa | 0 mm | - | 397 W/m² | - |
| 1777414939 | 17.22° C | 66% | 1012.4 hPa | 0 mm | - | 527 W/m² | - |
| 1777413139 | 17.22° C | 68% | 1012.5 hPa | 0 mm | - | 324 W/m² | - |
| 1777410740 | 16.67° C | 69% | 1012.5 hPa | 0 mm | - | 380 W/m² | - |
* Rain latest hour (hover to see other rain measurements)
** Current wind speed in m/s (hover to see current wind gust speed)